WEATHER DATA

YESTERDAY
Time Temp. Dewp. Hum. Wind dir Wind speed Wind gust Bar. 1h Prec. 24h Prec.
00:07 15.2 8.2 63 15 0.8 1.4 1020.3 0.0000 0.0000
00:18 14.9 8.2 64 17 1.1 1.7 1020.4 0.0000 0.0000
00:28 14.7 8.2 65 21 0.8 1.4 1020.4 0.0000 0.0000
00:37 14.5 8 65 31 0.6 1.1 1020.4 0.0000 0.0000
00:48 14.2 7.9 66 90 0.3 0.6 1020.4 0.0000 0.0000
00:58 13.9 7.9 67 18 0.3 1.1 1020.4 0.0000 0.0000
01:08 13.7 7.9 68 13 0.6 1.1 1020.4 0.0000 0.0000
01:18 13.6 7.8 68 10 1.1 1.7 1020.5 0.0000 0.0000
01:28 13.4 7.6 68 12 0.8 1.7 1020.4 0.0000 0.0000
01:38 13.3 7.7 69 31 0.3 1.1 1020.4 0.0000 0.0000
01:48 13.1 7.5 69 16 0.6 1.4 1020.3 0.0000 0.0000
01:58 13 7.7 70 14 0.6 1.7 1020.3 0.0000 0.0000
02:08 12.8 7.5 70 10 0.6 1.1 1020.2 0.0000 0.0000
02:18 12.7 7.4 70 8 0.8 1.4 1020.1 0.0000 0.0000
02:28 12.5 7.4 71 16 0.8 1.4 1020.1 0.0000 0.0000
02:38 12.4 7.3 71 357 0.6 1.1 1020 0.0000 0.0000
02:48 12.2 7.3 72 13 0.6 1.4 1020 0.0000 0.0000
02:58 12 7.1 72 21 0.6 1.4 1019.9 0.0000 0.0000
03:08 11.9 7 72 27 0.3 1.1 1019.8 0.0000 0.0000
03:18 11.8 7.1 73 45 0.3 0.8 1019.8 0.0000 0.0000
03:28 11.6 6.9 73 3 0.3 0.6 1019.7 0.0000 0.0000
03:39 11.5 7 74 20 0.3 0.8 1019.7 0.0000 0.0000
03:48 11.4 6.9 74 8 0.6 1.4 1019.7 0.0000 0.0000
03:58 11.3 6.8 74 9 0.6 1.1 1019.7 0.0000 0.0000
04:08 11.2 6.9 75 38 0.6 1.1 1019.7 0.0000 0.0000
04:18 11.2 6.9 75 45 0.3 0.8 1019.8 0.0000 0.0000
04:28 11 6.7 75 18 0.3 0.6 1019.7 0.0000 0.0000
04:38 11 6.9 76 21 0.3 0.8 1019.7 0.0000 0.0000
04:58 10.8 6.7 76 45 0.3 0.6 1019.7 0.0000 0.0000
05:08 10.7 6.6 76 90 0.3 0.8 1019.7 0.0000 0.0000
05:18 10.6 6.7 77 45 0.3 0.6 1019.7 0.0000 0.0000
05:29 10.5 6.6 77 14 0.6 0.8 1019.7 0.0000 0.0000
05:38 10.4 6.7 78 10 0.8 1.4 1019.6 0.0000 0.0000
05:48 10.3 6.6 78 90 0.3 0.8 1019.5 0.0000 0.0000
05:54 10.3 6.8 79 53 0.3 0.8 1019.4 0.0000 0.0000
06:04 10.3 6.8 79 90 0.3 1.1 1019.3 0.0000 0.0000
06:14 10.3 6.8 79 90 0.3 0.8 1019.3 0.0000 0.0000
06:24 10.4 6.9 79 33 0.3 0.8 1019.3 0.0000 0.0000
06:35 10.4 7.1 80 11 0.3 1.1 1019.2 0.0000 0.0000
06:44 10.6 7.3 80 9 0.3 1.1 1019.3 0.0000 0.0000
06:54 10.8 7.5 80 28 0.6 0.8 1019.3 0.0000 0.0000
07:04 11.2 7.9 80 45 0.3 0.8 1019.3 0.0000 0.0000
07:14 11.5 8 79 53 0.3 0.8 1019.2 0.0000 0.0000
07:24 11.9 8.4 79 45 0.3 0.8 1019.1 0.0000 0.0000
07:34 12.3 8.8 79 357 0.6 1.1 1019 0.0000 0.0000
07:45 12.8 9.1 78 3 0.6 1.1 1019 0.0000 0.0000
07:54 13.3 9.5 78 34 0.3 0.8 1018.9 0.0000 0.0000
08:04 13.9 9.9 77 33 0.3 0.8 1018.9 0.0000 0.0000
08:15 14.5 10.7 78 45 0.3 0.6 1018.9 0.0000 0.0000
08:25 14.9 11.1 78 45 0.3 0.6 1018.9 0.0000 0.0000
08:34 15.3 11.3 77 16 0.3 0.8 1018.8 0.0000 0.0000
08:44 15.7 11.5 76 90 0.3 0.6 1018.9 0.0000 0.0000
08:55 16.1 11.3 73 32 0.3 0.6 1018.8 0.0000 0.0000
09:04 16.7 11.4 71 26 0.3 0.6 1018.8 0.0000 0.0000
09:14 17.3 11.8 70 21 0.3 0.8 1018.9 0.0000 0.0000
09:25 17.8 12 69 45 0.3 0.6 1018.9 0.0000 0.0000
09:35 18.5 12 66 39 0.3 0.6 1018.9 0.0000 0.0000
09:44 19.1 12.1 64 90 0.3 0.6 1018.9 0.0000 0.0000
10:05 21.3 11.9 55 202 0.8 2.2 1018.8 0.0000 0.0000
10:15 22.3 12 52 187 1.1 2.2 1018.7 0.0000 0.0000
10:24 23.2 12.2 50 165 0.8 1.9 1018.7 0.0000 0.0000
10:35 23.9 12.2 48 192 0.8 2.2 1018.6 0.0000 0.0000
10:45 24.6 11.9 45 183 0.6 1.7 1018.7 0.0000 0.0000
10:54 25.1 12 44 169 0.8 2.2 1018.5 0.0000 0.0000
11:05 25.7 12.5 44 221 0.6 1.7 1018.4 0.0000 0.0000
11:15 25.9 12.7 44 191 1.1 2.2 1018.3 0.0000 0.0000
11:25 26.2 12.3 42 248 0.6 1.9 1018.3 0.0000 0.0000
11:34 26.5 12.6 42 233 0.6 1.1 1018.3 0.0000 0.0000
11:45 27 12.6 41 297 0.6 1.7 1018.1 0.0000 0.0000
11:55 27.5 12.7 40 218 1.1 2.2 1018.1 0.0000 0.0000
12:05 27.9 12.7 39 210 1.1 3.3 1018 0.0000 0.0000
12:15 28.2 12.1 37 225 1.1 2.8 1018 0.0000 0.0000
12:25 28.5 11.6 35 201 1.4 2.8 1017.8 0.0000 0.0000
12:35 28.5 10.7 33 206 1.7 3.1 1017.9 0.0000 0.0000
12:45 28.7 11.3 34 196 0.8 2.2 1017.8 0.0000 0.0000
12:55 28.8 11.4 34 218 1.1 2.8 1017.7 0.0000 0.0000
13:05 29.2 11.3 33 167 1.4 3.1 1017.6 0.0000 0.0000
13:15 29.4 11.5 33 212 0.6 2.2 1017.5 0.0000 0.0000
13:25 29.6 11.2 32 270 0.3 1.1 1017.4 0.0000 0.0000
13:35 29.7 11.3 32 209 1.1 3.1 1017.3 0.0000 0.0000
13:45 29.8 10.9 31 154 0.8 3.1 1017.3 0.0000 0.0000
13:55 29.9 11 31 261 1.7 3.1 1017.3 0.0000 0.0000
14:05 30 11 31 351 1.4 2.8 1017 0.0000 0.0000
14:15 29.9 11 31 354 0.8 1.9 1016.9 0.0000 0.0000
14:25 30 11.5 32 342 1.4 3.1 1016.8 0.0000 0.0000
14:35 30 11.5 32 299 1.1 2.2 1016.8 0.0000 0.0000
14:45 30 11 31 323 1.1 2.8 1016.6 0.0000 0.0000
14:55 30.1 11.6 32 270 0.8 1.7 1016.5 0.0000 0.0000
15:15 30.6 12 32 146 1.9 4.7 1016.3 0.0000 0.0000
15:25 30.6 11.6 31 162 1.1 2.8 1016.2 0.0000 0.0000
15:35 30.9 11.3 30 317 1.1 2.8 1016.2 0.0000 0.0000
15:46 30.8 11.2 30 220 1.1 3.6 1016.2 0.0000 0.0000
15:55 30.9 10.8 29 315 0.8 2.2 1015.9 0.0000 0.0000
16:16 31 10.9 29 315 1.7 4.2 1015.7 0.0000 0.0000
16:25 31.1 11 29 344 1.7 3.1 1015.7 0.0000 0.0000
16:35 31.2 10.5 28 352 1.4 2.8 1015.6 0.0000 0.0000
16:45 31.3 11.2 29 299 1.1 2.2 1015.5 0.0000 0.0000
16:56 31.4 10.7 28 286 1.1 2.5 1015.5 0.0000 0.0000
17:05 31.4 10.7 28 315 1.1 3.3 1015.4 0.0000 0.0000
17:15 31.8 11.1 28 341 1.7 3.3 1015.3 0.0000 0.0000
17:26 32.9 11.4 27 270 1.1 2.5 1015.2 0.0000 0.0000
17:36 34 11.2 25 316 1.4 4.4 1015.1 0.0000 0.0000
17:45 34.9 11.3 24 329 1.4 3.3 1015 0.0000 0.0000
17:56 35.9 12.2 24 321 1.1 2.8 1014.9 0.0000 0.0000
18:06 36.4 12 23 335 1.7 4.2 1014.9 0.0000 0.0000
18:16 36.9 11.7 22 326 1.4 2.8 1014.7 0.0000 0.0000
18:25 37 12.4 23 311 1.1 3.3 1014.6 0.0000 0.0000
18:36 37.1 11.9 22 305 1.4 2.8 1014.5 0.0000 0.0000
18:46 37.6 12.3 22 316 1.1 2.5 1014.5 0.0000 0.0000
18:55 38.2 12.8 22 298 0.8 1.9 1014.5 0.0000 0.0000
19:06 38.7 12.5 21 327 0.8 2.2 1014.4 0.0000 0.0000
19:16 36.7 12.2 23 255 0.8 1.4 1014.4 0.0000 0.0000
19:26 34.8 11.3 24 303 0.6 1.9 1014.3 0.0000 0.0000
19:36 33.3 11.2 26 297 0.8 1.7 1014.5 0.0000 0.0000
19:46 32 11.2 28 313 1.1 2.5 1014.6 0.0000 0.0000
19:56 31 12.9 33 338 0.8 1.7 1014.6 0.0000 0.0000
20:06 29.9 12.8 35 347 1.1 1.9 1014.6 0.0000 0.0000
20:16 28.9 12.8 37 1 1.1 1.7 1014.6 0.0000 0.0000
20:26 28 12.4 38 347 0.8 1.7 1014.6 0.0000 0.0000
20:36 27.3 12.5 40 350 0.8 1.7 1014.6 0.0000 0.0000
20:46 26.6 12.3 41 348 0.8 1.7 1014.7 0.0000 0.0000
20:56 25.9 12.4 43 356 0.6 1.4 1014.7 0.0000 0.0000
21:06 25.3 12.2 44 6 0.8 1.4 1014.7 0.0000 0.0000
21:16 24.7 12.3 46 18 0.8 1.7 1014.6 0.0000 0.0000
21:26 24.2 12.2 47 12 0.6 1.1 1014.6 0.0000 0.0000
21:36 23.6 12 48 8 0.8 1.7 1014.7 0.0000 0.0000
21:46 23.1 12.1 50 12 0.8 1.4 1014.6 0.0000 0.0000
21:57 22.6 11.7 50 16 0.8 1.4 1014.7 0.0000 0.0000
22:06 22.2 11.9 52 15 0.6 1.1 1014.7 0.0000 0.0000
22:16 21.8 11.5 52 22 0.8 1.4 1014.7 0.0000 0.0000
22:26 21.4 11.4 53 20 1.1 1.7 1014.7 0.0000 0.0000
22:36 21 11.3 54 24 0.8 1.4 1015 0.0000 0.0000
22:46 20.7 11.1 54 21 0.3 0.8 1015 0.0000 0.0000
22:56 20.4 11.1 55 27 0.8 1.4 1015.2 0.0000 0.0000
23:07 20.2 11.2 56 20 0.6 1.4 1015.2 0.0000 0.0000
23:16 20 11 56 36 0.6 1.1 1015 0.0000 0.0000
23:26 19.7 11 57 31 0.6 0.8 1015 0.0000 0.0000
23:36 19.5 11 58 59 0.3 0.8 1015 0.0000 0.0000
23:47 19.3 11.1 59 22 0.6 1.1 1015 0.0000 0.0000
23:56 19.2 11 59 23 0.8 1.4 1015 0.0000 0.0000

DAY STATISTIC

2018-07-20
TEMPERATURE
AVERAGE
21.9
HIGH
38.7
19:06
LOW
10.3
05:48
PRESSURE
AVERAGE
1017.5
HIGH
1020.5
01:18
LOW
1014.3
19:26
DEWPOINT
AVERAGE
10.2
HIGH
12.9
19:56
LOW
6.6
05:08
HUMIDITY
AVERAGE
52
HIGH
80
06:35
LOW
21
19:06
WIND SPEED
AVERAGE
0.8
HIGH
1.9
15:15
WIND GUST
AVERAGE
1.7
HIGH
4.7
15:15
WIND DIRECTION
PREVAILING
N
38.6%
N
38.6
NE
20.0
E
5.0
SE
1.4
S
7.9
SW
7.1
W
5.0
NW
15.0
PRECIPITATION
RAIN HOUR
0.0
RAIN DAY
0.0
TEMPERATURE (°C)
LOW
10.3
HIGH
38.7
AVERAGE
21.9
PRESSURE (hpa)
LOW
1014.3
HIGH
1020.5
AVERAGE
1017.5
DEVICE